createdAt,value
2022-10-16T00:01:32.673Z,13.60
2022-10-16T00:04:02.949Z,13.60
2022-10-16T00:06:32.873Z,13.60
2022-10-16T00:09:01.153Z,13.60
2022-10-16T00:11:34.675Z,13.50
2022-10-16T00:14:05.078Z,13.50
2022-10-16T00:16:34.073Z,13.50
2022-10-16T00:19:02.419Z,13.50
2022-10-16T00:21:32.549Z,13.50
2022-10-16T00:24:05.346Z,13.50
2022-10-16T00:26:39.249Z,13.60
2022-10-16T00:29:08.258Z,13.50
2022-10-16T00:31:36.795Z,13.60
2022-10-16T00:34:05.384Z,13.50
2022-10-16T00:36:33.824Z,13.50
2022-10-16T00:39:02.856Z,13.50
2022-10-16T00:41:32.320Z,13.50
2022-10-16T00:44:03.991Z,13.50
2022-10-16T00:46:38.066Z,13.50
2022-10-16T00:49:10.849Z,13.50
2022-10-16T00:51:41.927Z,13.50
2022-10-16T00:54:12.289Z,13.50
2022-10-16T00:56:40.614Z,13.50
2022-10-16T00:59:17.895Z,13.40
2022-10-16T01:01:46.376Z,13.40
2022-10-16T01:04:14.905Z,13.40
2022-10-16T01:06:53.670Z,13.30
2022-10-16T01:09:26.382Z,13.30
2022-10-16T01:12:05.233Z,13.30
2022-10-16T01:14:45.126Z,13.30
2022-10-16T01:17:17.767Z,13.30
2022-10-16T01:20:03.644Z,13.20
2022-10-16T01:22:44.022Z,13.20
2022-10-16T01:25:19.338Z,13.20
2022-10-16T01:27:50.644Z,13.10
2022-10-16T01:30:24.167Z,13.10
2022-10-16T01:32:57.388Z,13.10
2022-10-16T01:35:29.975Z,13.00
2022-10-16T01:38:05.391Z,13.10
2022-10-16T01:40:37.355Z,13.00
2022-10-16T01:43:11.218Z,13.00
2022-10-16T01:45:40.321Z,13.00
2022-10-16T01:48:10.662Z,13.00
2022-10-16T01:50:42.052Z,13.00
2022-10-16T01:53:14.975Z,13.00
2022-10-16T01:55:47.090Z,13.00
2022-10-16T01:58:17.561Z,12.90
2022-10-16T02:00:48.980Z,12.90
2022-10-16T02:03:20.982Z,12.90
2022-10-16T02:05:53.610Z,12.90
2022-10-16T02:08:22.551Z,12.90
2022-10-16T02:10:51.232Z,12.90
2022-10-16T02:13:28.383Z,12.90
2022-10-16T02:15:56.699Z,12.90
2022-10-16T02:18:27.386Z,12.90
2022-10-16T02:21:00.489Z,12.90
2022-10-16T02:23:38.244Z,12.90
2022-10-16T02:26:09.539Z,13.00
2022-10-16T02:28:44.544Z,12.90
2022-10-16T02:31:15.276Z,12.90
2022-10-16T02:33:45.250Z,13.00
2022-10-16T02:36:14.095Z,13.00
2022-10-16T02:38:43.107Z,13.10
2022-10-16T02:41:11.536Z,13.00
2022-10-16T02:43:41.270Z,13.10
2022-10-16T02:46:09.925Z,13.10
2022-10-16T02:48:38.237Z,13.10
2022-10-16T02:51:06.924Z,13.00
2022-10-16T02:53:35.171Z,13.00
2022-10-16T02:56:03.356Z,13.00
2022-10-16T02:58:31.778Z,13.00
2022-10-16T03:01:01.440Z,13.10
2022-10-16T03:03:29.786Z,13.10
2022-10-16T03:05:58.092Z,13.10
2022-10-16T03:08:26.319Z,13.00
2022-10-16T03:10:54.966Z,13.00
2022-10-16T03:13:23.168Z,13.00
2022-10-16T03:15:51.667Z,13.10
2022-10-16T03:18:21.310Z,13.10
2022-10-16T03:20:49.562Z,13.10
2022-10-16T03:23:17.823Z,13.10
2022-10-16T03:25:47.346Z,13.20
2022-10-16T03:28:16.670Z,13.10
2022-10-16T03:30:45.990Z,13.20
2022-10-16T03:33:14.316Z,13.10
2022-10-16T03:35:43.903Z,13.10
2022-10-16T03:38:12.156Z,13.00
2022-10-16T03:40:40.334Z,13.10
2022-10-16T03:43:08.807Z,13.10
2022-10-16T03:45:37.050Z,13.00
2022-10-16T03:48:05.590Z,13.00
2022-10-16T03:50:33.774Z,13.00
2022-10-16T03:53:03.365Z,13.00
2022-10-16T03:55:31.618Z,13.00
2022-10-16T03:57:59.900Z,13.00
2022-10-16T04:00:28.296Z,13.00
2022-10-16T04:02:56.590Z,13.00
2022-10-16T04:05:24.837Z,13.00
2022-10-16T04:07:53.009Z,13.00
2022-10-16T04:10:22.687Z,13.00
2022-10-16T04:12:50.883Z,12.90
2022-10-16T04:15:19.366Z,12.90
2022-10-16T04:17:47.919Z,12.90
2022-10-16T04:20:16.311Z,12.90
2022-10-16T04:22:44.564Z,12.90
2022-10-16T04:25:13.364Z,12.90
2022-10-16T04:27:45.966Z,12.90
2022-10-16T04:30:14.954Z,12.90
2022-10-16T04:32:43.393Z,12.80
2022-10-16T04:35:11.764Z,12.80
2022-10-16T04:37:39.968Z,12.80
2022-10-16T04:40:09.609Z,12.80
2022-10-16T04:42:37.880Z,12.80
2022-10-16T04:45:12.065Z,12.80
2022-10-16T04:47:43.331Z,12.80
2022-10-16T04:50:11.806Z,12.80
2022-10-16T04:52:40.149Z,12.80
2022-10-16T04:55:09.450Z,12.80
2022-10-16T04:57:37.765Z,12.80
2022-10-16T05:00:09.079Z,12.90
2022-10-16T05:02:37.440Z,12.90
2022-10-16T05:05:06.811Z,12.90
2022-10-16T05:07:35.075Z,12.90
2022-10-16T05:10:03.371Z,12.90
2022-10-16T05:12:31.638Z,12.90
2022-10-16T05:15:00.106Z,12.90
2022-10-16T05:17:29.955Z,12.90
2022-10-16T05:19:58.373Z,12.90
2022-10-16T05:22:27.338Z,12.90
2022-10-16T05:24:55.718Z,12.90
2022-10-16T05:27:24.236Z,12.90
2022-10-16T05:29:52.697Z,12.90
2022-10-16T05:32:21.419Z,12.90
2022-10-16T05:34:51.031Z,12.90
2022-10-16T05:37:19.305Z,12.90
2022-10-16T05:39:47.589Z,12.90
2022-10-16T05:42:15.942Z,12.90
2022-10-16T05:44:44.196Z,12.90
2022-10-16T05:47:12.841Z,12.90
2022-10-16T05:49:41.531Z,12.90
2022-10-16T05:52:11.292Z,12.90
2022-10-16T05:54:39.540Z,12.90
2022-10-16T05:57:07.809Z,12.90
2022-10-16T05:59:36.189Z,12.90
2022-10-16T06:02:04.597Z,12.80
2022-10-16T06:04:33.197Z,12.90
2022-10-16T06:07:02.508Z,12.90
2022-10-16T06:09:32.169Z,12.90
2022-10-16T06:12:00.454Z,12.90
2022-10-16T06:14:29.099Z,12.90
2022-10-16T06:16:57.343Z,12.90
2022-10-16T06:19:25.726Z,12.90
2022-10-16T06:21:53.965Z,12.90
2022-10-16T06:24:22.392Z,12.90
2022-10-16T06:26:52.127Z,12.90
2022-10-16T06:29:20.317Z,13.00
2022-10-16T06:31:48.659Z,12.90
2022-10-16T06:34:16.908Z,12.90
2022-10-16T06:36:45.134Z,12.90
2022-10-16T06:39:13.399Z,12.90
2022-10-16T06:41:41.627Z,12.90
2022-10-16T06:44:11.447Z,12.90
2022-10-16T06:46:39.711Z,12.90
2022-10-16T06:49:08.158Z,12.80
2022-10-16T06:51:40.501Z,12.90
2022-10-16T06:54:11.399Z,12.80
2022-10-16T06:56:41.237Z,12.80
2022-10-16T06:59:13.820Z,12.80
2022-10-16T07:01:42.093Z,12.80
2022-10-16T07:04:12.616Z,12.80
2022-10-16T07:06:44.078Z,12.80
2022-10-16T07:09:13.486Z,12.80
2022-10-16T07:11:42.539Z,12.80
2022-10-16T07:14:19.395Z,12.90
2022-10-16T07:16:48.347Z,12.90
2022-10-16T07:19:18.701Z,13.00
2022-10-16T07:21:47.072Z,13.10
2022-10-16T07:24:17.859Z,13.20
2022-10-16T07:26:48.099Z,13.30
2022-10-16T07:29:19.734Z,13.40
2022-10-16T07:31:48.670Z,13.50
2022-10-16T07:34:19.021Z,13.50
2022-10-16T07:36:49.860Z,13.70
2022-10-16T07:39:18.498Z,13.70
2022-10-16T07:41:46.998Z,13.80
2022-10-16T07:44:15.270Z,13.90
2022-10-16T07:46:44.885Z,14.00
2022-10-16T07:49:13.219Z,14.20
2022-10-16T07:51:41.450Z,14.20
2022-10-16T07:54:10.835Z,14.30
2022-10-16T07:56:41.436Z,14.40
2022-10-16T07:59:12.477Z,14.50
2022-10-16T08:01:40.842Z,14.70
2022-10-16T08:04:11.236Z,14.80
2022-10-16T08:06:42.159Z,14.90
2022-10-16T08:09:11.638Z,15.00
2022-10-16T08:11:39.859Z,15.10
2022-10-16T08:14:08.124Z,15.20
2022-10-16T08:16:36.396Z,15.30
2022-10-16T08:19:04.769Z,15.40
2022-10-16T08:21:34.402Z,15.60
2022-10-16T08:24:02.734Z,15.70
2022-10-16T08:26:31.576Z,15.80
2022-10-16T08:28:59.911Z,15.90
2022-10-16T08:31:28.465Z,16.00
2022-10-16T08:33:56.754Z,16.00
2022-10-16T08:36:25.109Z,16.00
2022-10-16T08:38:55.622Z,16.20
2022-10-16T08:41:51.748Z,16.40
2022-10-16T08:45:02.112Z,16.50
2022-10-16T08:47:47.878Z,16.50
2022-10-16T08:50:23.248Z,16.70
2022-10-16T08:52:51.859Z,16.90
2022-10-16T08:55:35.222Z,16.90
2022-10-16T08:58:03.849Z,17.00
2022-10-16T09:00:32.999Z,17.00
2022-10-16T09:03:13.331Z,17.10
2022-10-16T09:06:03.018Z,17.20
2022-10-16T09:08:43.111Z,17.40
2022-10-16T09:11:20.563Z,17.70
2022-10-16T09:13:57.869Z,17.80
2022-10-16T09:16:33.524Z,17.80
2022-10-16T09:19:11.563Z,17.90
2022-10-16T09:21:43.973Z,17.90
2022-10-16T09:24:16.141Z,18.00
2022-10-16T09:26:46.572Z,18.00
2022-10-16T09:29:16.306Z,18.10
2022-10-16T09:31:45.200Z,18.20
2022-10-16T09:34:32.898Z,18.30
2022-10-16T09:37:05.510Z,18.40
2022-10-16T09:39:46.538Z,18.50
2022-10-16T09:42:18.630Z,18.60
2022-10-16T09:44:51.388Z,18.80
2022-10-16T09:47:24.022Z,18.80
2022-10-16T09:49:58.834Z,18.80
2022-10-16T09:52:27.920Z,18.90
2022-10-16T09:54:58.307Z,18.90
2022-10-16T09:57:29.169Z,19.10
2022-10-16T10:00:00.393Z,19.10
2022-10-16T10:02:32.283Z,19.10
2022-10-16T10:05:00.617Z,19.00
2022-10-16T10:07:30.641Z,19.20
2022-10-16T10:10:00.079Z,19.20
2022-10-16T10:12:33.647Z,19.30
2022-10-16T10:15:09.162Z,19.20
2022-10-16T10:17:49.500Z,19.10
2022-10-16T10:20:31.389Z,19.10
2022-10-16T10:22:59.987Z,19.50
2022-10-16T10:25:44.570Z,19.60
2022-10-16T10:28:46.158Z,19.80
2022-10-16T10:31:24.379Z,19.80
2022-10-16T10:34:00.719Z,19.70
2022-10-16T10:36:34.052Z,19.50
2022-10-16T10:39:07.480Z,19.60
2022-10-16T10:42:02.136Z,19.80
2022-10-16T10:44:55.526Z,20.00
2022-10-16T10:47:36.136Z,20.30
2022-10-16T10:50:14.263Z,20.40
2022-10-16T10:53:02.586Z,20.30
2022-10-16T10:55:41.963Z,20.30
2022-10-16T10:58:43.844Z,20.30
2022-10-16T11:01:16.654Z,19.70
2022-10-16T11:04:13.747Z,19.00
2022-10-16T11:06:46.543Z,18.80
2022-10-16T11:09:20.981Z,18.80
2022-10-16T11:11:55.431Z,18.80
2022-10-16T11:14:28.772Z,19.10
2022-10-16T11:17:04.800Z,19.20
2022-10-16T11:19:42.360Z,19.30
2022-10-16T11:22:19.270Z,19.40
2022-10-16T11:24:54.087Z,19.30
2022-10-16T11:27:37.707Z,19.30
2022-10-16T11:30:16.369Z,19.50
2022-10-16T11:32:59.313Z,19.30
2022-10-16T11:35:42.035Z,19.20
2022-10-16T11:38:23.768Z,19.10
2022-10-16T11:40:58.513Z,19.00
2022-10-16T11:43:33.140Z,18.80
2022-10-16T11:46:10.623Z,18.80
2022-10-16T11:48:50.763Z,18.70
2022-10-16T11:51:26.154Z,18.70
2022-10-16T11:54:02.937Z,18.60
2022-10-16T11:56:34.243Z,18.50
2022-10-16T11:59:07.566Z,18.60
2022-10-16T12:01:42.659Z,18.80
2022-10-16T12:04:31.881Z,18.90
2022-10-16T12:07:06.864Z,18.90
2022-10-16T12:09:39.483Z,19.00
2022-10-16T12:12:28.160Z,18.90
2022-10-16T12:15:26.010Z,18.90
2022-10-16T12:17:59.288Z,18.80
2022-10-16T12:20:33.176Z,18.90
2022-10-16T12:23:04.952Z,18.90
2022-10-16T12:25:35.872Z,19.00
2022-10-16T12:28:05.458Z,19.10
2022-10-16T12:30:36.922Z,19.00
2022-10-16T12:33:08.021Z,18.90
2022-10-16T12:35:46.822Z,18.80
2022-10-16T12:38:21.511Z,18.80
2022-10-16T12:41:00.188Z,18.80
2022-10-16T12:43:39.793Z,18.80
2022-10-16T12:46:39.874Z,18.80
2022-10-16T12:49:31.329Z,18.80
2022-10-16T12:52:01.109Z,18.80
2022-10-16T12:54:32.508Z,18.90
2022-10-16T12:57:26.582Z,18.90
2022-10-16T13:00:04.791Z,18.90
2022-10-16T13:03:20.922Z,18.80
2022-10-16T13:06:04.441Z,18.70
2022-10-16T13:09:13.614Z,18.70
2022-10-16T13:12:09.544Z,18.70
2022-10-16T13:15:22.170Z,18.60
2022-10-16T13:18:01.487Z,18.50
2022-10-16T13:20:37.369Z,18.40
2022-10-16T13:23:16.754Z,18.40
2022-10-16T13:26:02.063Z,18.40
2022-10-16T13:28:34.463Z,18.40
2022-10-16T13:31:04.667Z,18.40
2022-10-16T13:33:36.721Z,18.50
2022-10-16T13:36:06.929Z,18.50
2022-10-16T13:38:37.487Z,18.50
2022-10-16T13:41:16.071Z,18.50
2022-10-16T13:43:48.068Z,18.50
2022-10-16T13:46:19.333Z,18.50
2022-10-16T13:48:58.696Z,18.50
2022-10-16T13:51:28.901Z,18.50
2022-10-16T13:53:58.984Z,18.50
2022-10-16T13:56:31.936Z,18.40
2022-10-16T13:59:04.586Z,18.40
2022-10-16T14:01:35.911Z,18.30
2022-10-16T14:04:07.393Z,18.30
2022-10-16T14:06:37.387Z,18.30
2022-10-16T14:09:11.777Z,18.30
2022-10-16T14:11:50.166Z,18.40
2022-10-16T14:14:18.685Z,18.30
2022-10-16T14:16:47.673Z,18.30
2022-10-16T14:19:23.475Z,18.30
2022-10-16T14:21:53.149Z,18.30
2022-10-16T14:24:29.921Z,18.30
2022-10-16T14:27:00.403Z,18.20
2022-10-16T14:29:32.483Z,18.20
2022-10-16T14:32:02.632Z,18.20
2022-10-16T14:34:34.694Z,18.20
2022-10-16T14:39:38.507Z,18.10
2022-10-16T14:42:20.087Z,18.10
2022-10-16T14:44:51.787Z,18.10
2022-10-16T14:47:25.913Z,18.10
2022-10-16T14:49:56.048Z,18.10
2022-10-16T14:52:24.350Z,18.00
2022-10-16T14:54:55.696Z,18.00
2022-10-16T14:57:29.601Z,18.00
2022-10-16T14:59:58.439Z,18.00
2022-10-16T15:02:32.524Z,18.00
2022-10-16T15:05:09.791Z,18.00
2022-10-16T15:07:38.036Z,17.90
2022-10-16T15:10:07.312Z,17.90
2022-10-16T15:12:36.970Z,17.90
2022-10-16T15:15:27.469Z,17.90
2022-10-16T15:17:58.051Z,17.90
2022-10-16T15:20:28.511Z,17.80
2022-10-16T15:22:56.762Z,17.80
2022-10-16T15:25:37.103Z,17.90
2022-10-16T15:28:07.872Z,17.80
2022-10-16T15:30:36.940Z,17.80
2022-10-16T15:33:07.211Z,17.80
2022-10-16T15:35:35.434Z,17.80
2022-10-16T15:38:03.719Z,17.70
2022-10-16T15:40:32.102Z,17.70
2022-10-16T15:43:00.352Z,17.70
2022-10-16T15:45:29.977Z,17.70
2022-10-16T15:47:58.272Z,17.70
2022-10-16T15:50:26.881Z,17.70
2022-10-16T15:52:55.124Z,17.50
2022-10-16T15:55:23.362Z,17.50
2022-10-16T15:57:51.728Z,17.40
2022-10-16T16:00:22.927Z,17.40
2022-10-16T16:02:56.545Z,17.30
2022-10-16T16:05:25.156Z,17.30
2022-10-16T16:07:53.731Z,17.30
2022-10-16T16:10:23.060Z,17.20
2022-10-16T16:12:53.555Z,17.20
2022-10-16T16:15:22.969Z,17.00
2022-10-16T16:17:51.544Z,17.00
2022-10-16T16:20:21.521Z,17.00
2022-10-16T16:22:49.958Z,16.90
2022-10-16T16:25:18.465Z,16.90
2022-10-16T16:27:46.763Z,16.90
2022-10-16T16:30:18.408Z,16.80
2022-10-16T16:32:48.495Z,16.80
2022-10-16T16:35:16.877Z,16.70
2022-10-16T16:37:46.595Z,16.50
2022-10-16T16:40:14.845Z,16.40
2022-10-16T16:42:43.364Z,16.40
2022-10-16T16:45:12.157Z,16.40
2022-10-16T16:47:40.708Z,16.30
2022-10-16T16:50:09.668Z,16.30
2022-10-16T16:52:38.456Z,16.30
2022-10-16T16:55:09.247Z,16.20
2022-10-16T16:57:37.506Z,16.20
2022-10-16T17:00:07.428Z,16.10
2022-10-16T17:02:35.688Z,16.00
2022-10-16T17:05:03.968Z,16.00
2022-10-16T17:07:35.545Z,16.00
2022-10-16T17:10:04.573Z,16.00
2022-10-16T17:12:34.401Z,16.00
2022-10-16T17:15:03.098Z,16.00
2022-10-16T17:17:31.381Z,15.90
2022-10-16T17:19:59.637Z,15.90
2022-10-16T17:22:28.079Z,15.90
2022-10-16T17:24:56.997Z,15.80
2022-10-16T17:27:25.374Z,15.80
2022-10-16T17:29:55.240Z,15.80
2022-10-16T17:32:23.803Z,15.80
2022-10-16T17:34:52.248Z,15.80
2022-10-16T17:37:20.619Z,15.90
2022-10-16T17:39:53.025Z,15.90
2022-10-16T17:42:21.347Z,15.80
2022-10-16T17:44:49.640Z,15.80
2022-10-16T17:47:19.234Z,15.80
2022-10-16T17:49:47.539Z,15.90
2022-10-16T17:52:15.856Z,15.80
2022-10-16T17:54:44.288Z,15.80
2022-10-16T17:57:12.543Z,15.80
2022-10-16T17:59:40.821Z,15.80
2022-10-16T18:02:10.782Z,15.80
2022-10-16T18:04:40.811Z,15.80
2022-10-16T18:07:09.212Z,15.80
2022-10-16T18:09:42.595Z,15.80
2022-10-16T18:12:26.207Z,15.80
2022-10-16T18:14:58.483Z,15.80
2022-10-16T18:17:27.470Z,15.80
2022-10-16T18:19:57.298Z,15.80
2022-10-16T18:22:27.494Z,15.80
2022-10-16T18:24:55.789Z,15.80
2022-10-16T18:27:24.386Z,15.80
2022-10-16T18:29:56.490Z,15.80
2022-10-16T18:32:24.802Z,15.70
2022-10-16T18:34:54.207Z,15.80
2022-10-16T18:37:24.296Z,15.80
2022-10-16T18:39:52.729Z,15.80
2022-10-16T18:42:21.059Z,15.80
2022-10-16T18:44:52.611Z,15.80
2022-10-16T18:47:21.572Z,15.80
2022-10-16T18:49:50.513Z,15.70
2022-10-16T18:52:19.061Z,15.80
2022-10-16T18:54:49.077Z,15.70
2022-10-16T18:57:17.417Z,15.60
2022-10-16T18:59:45.791Z,15.60
2022-10-16T19:02:14.240Z,15.60
2022-10-16T19:04:45.452Z,15.60
2022-10-16T19:07:15.624Z,15.50
2022-10-16T19:09:44.187Z,15.40
2022-10-16T19:12:13.858Z,15.40
2022-10-16T19:14:42.534Z,15.40
2022-10-16T19:17:10.766Z,15.40
2022-10-16T19:19:39.311Z,15.30
2022-10-16T19:22:17.183Z,15.30
2022-10-16T19:24:46.105Z,15.30
2022-10-16T19:27:15.829Z,15.30
2022-10-16T19:29:44.197Z,15.30
2022-10-16T19:32:12.598Z,15.30
2022-10-16T19:34:40.926Z,15.20
2022-10-16T19:37:11.012Z,15.20
2022-10-16T19:39:39.421Z,15.20
2022-10-16T19:42:07.747Z,15.20
2022-10-16T19:44:38.006Z,15.20
2022-10-16T19:47:06.321Z,15.20
2022-10-16T19:49:34.612Z,15.20
2022-10-16T19:52:03.061Z,15.10
2022-10-16T19:54:31.341Z,15.10
2022-10-16T19:57:00.234Z,15.10
2022-10-16T19:59:29.187Z,15.00
2022-10-16T20:01:59.075Z,14.90
2022-10-16T20:04:27.443Z,15.00
2022-10-16T20:09:29.131Z,15.00
2022-10-16T20:11:57.646Z,15.00
2022-10-16T20:14:25.946Z,15.00
2022-10-16T20:16:54.438Z,15.00
2022-10-16T20:19:24.167Z,15.00
2022-10-16T20:21:52.459Z,15.00
2022-10-16T20:24:20.680Z,15.00
2022-10-16T20:26:49.390Z,15.00
2022-10-16T20:29:17.821Z,15.00
2022-10-16T20:31:46.119Z,15.00
2022-10-16T20:34:14.699Z,14.90
2022-10-16T20:36:45.401Z,15.00
2022-10-16T20:39:14.767Z,14.90
2022-10-16T20:41:43.029Z,14.90
2022-10-16T20:44:11.311Z,15.00
2022-10-16T20:46:39.664Z,15.00
2022-10-16T20:49:11.076Z,15.00
2022-10-16T20:51:40.068Z,15.00
2022-10-16T20:54:11.646Z,15.00
2022-10-16T20:56:40.050Z,15.00
2022-10-16T20:59:08.711Z,15.00
2022-10-16T21:01:37.625Z,15.00
2022-10-16T21:04:08.905Z,15.00
2022-10-16T21:06:39.507Z,15.00
2022-10-16T21:09:10.157Z,15.00
2022-10-16T21:11:39.889Z,15.00
2022-10-16T21:14:09.772Z,15.00
2022-10-16T21:16:38.668Z,15.00
2022-10-16T21:19:07.637Z,15.00
2022-10-16T21:21:38.900Z,15.00
2022-10-16T21:24:12.248Z,14.90
2022-10-16T21:26:43.463Z,14.90
2022-10-16T21:29:11.983Z,15.00
2022-10-16T21:31:40.558Z,15.00
2022-10-16T21:34:09.109Z,15.00
2022-10-16T21:36:39.164Z,15.00
2022-10-16T21:39:12.079Z,15.00
2022-10-16T21:41:41.342Z,15.00
2022-10-16T21:44:09.957Z,15.10
2022-10-16T21:46:41.583Z,15.10
2022-10-16T21:49:15.644Z,15.20
2022-10-16T21:51:46.488Z,15.20
2022-10-16T21:54:18.922Z,15.20
2022-10-16T21:56:47.292Z,15.20
2022-10-16T21:59:16.529Z,15.20
2022-10-16T22:01:45.339Z,15.20
2022-10-16T22:04:15.520Z,15.30
2022-10-16T22:06:44.650Z,15.30
2022-10-16T22:09:15.972Z,15.30
2022-10-16T22:11:46.047Z,15.30
2022-10-16T22:14:17.684Z,15.30
2022-10-16T22:16:46.739Z,15.30
2022-10-16T22:19:18.251Z,15.30
2022-10-16T22:21:48.145Z,15.30
2022-10-16T22:24:17.952Z,15.30
2022-10-16T22:26:46.309Z,15.20
2022-10-16T22:29:16.184Z,15.20
2022-10-16T22:31:45.363Z,15.20
2022-10-16T22:34:15.096Z,15.20
2022-10-16T22:36:43.309Z,15.20
2022-10-16T22:39:11.825Z,15.10
2022-10-16T22:41:41.468Z,15.10
2022-10-16T22:44:13.894Z,15.10
2022-10-16T22:46:42.253Z,15.10
2022-10-16T22:49:10.568Z,15.20
2022-10-16T22:51:38.855Z,15.20
2022-10-16T22:54:07.195Z,15.20
2022-10-16T22:56:35.466Z,15.30
2022-10-16T22:59:05.241Z,15.30
2022-10-16T23:01:36.746Z,15.30
2022-10-16T23:04:06.972Z,15.30
2022-10-16T23:06:35.548Z,15.40
2022-10-16T23:09:04.995Z,15.40
2022-10-16T23:11:33.241Z,15.50
2022-10-16T23:14:01.473Z,15.50
2022-10-16T23:16:31.598Z,15.50
2022-10-16T23:19:00.205Z,15.50
2022-10-16T23:21:28.767Z,15.50
2022-10-16T23:23:57.284Z,15.60
2022-10-16T23:26:27.615Z,15.50
2022-10-16T23:28:58.568Z,15.50
2022-10-16T23:31:27.172Z,15.50
2022-10-16T23:33:58.028Z,15.50
2022-10-16T23:36:26.943Z,15.50
2022-10-16T23:38:56.087Z,15.50
2022-10-16T23:41:24.542Z,15.50
2022-10-16T23:43:52.962Z,15.50
2022-10-16T23:46:21.772Z,15.50
2022-10-16T23:48:50.040Z,15.50
2022-10-16T23:51:19.736Z,15.50
2022-10-16T23:53:48.246Z,15.50
2022-10-16T23:56:16.541Z,15.40
2022-10-16T23:58:44.834Z,15.40
